ADDS METAR Data INFO
IDs: Format: Raw Decoded Include TAF

Data at: 0732 UTC 18 Oct 2017

KSAC 180653Z AUTO 00000KT 7SM CLR 12/07 A3002 RMK AO2 SLP166 T01220072
KSAC 180553Z AUTO 00000KT 7SM CLR 15/08 A3003 RMK AO2 SLP169 T01500078 10267 20128 53003
KSAC 180453Z AUTO 15003KT 7SM CLR 14/09 A3002 RMK AO2 SLP166 T01390094
KSAC 180353Z 00000KT 7SM CLR 15/09 A3002 RMK AO2 SLP165 T01500089
KSAC 180253Z 00000KT 8SM FEW043 17/08 A3002 RMK AO2 SLP165 T01670083 53001
KSAC 180153Z 00000KT 9SM CLR 18/08 A3002 RMK AO2 SLP165 T01830078
KSAC 180053Z 00000KT 8SM BKN050 23/08 A3001 RMK AO2 SLP160 T02280078
KSAC 172353Z 28003KT 8SM CLR 27/02 A3002 RMK AO2 SLP164 T02720017 10272 20189 56013
KSAC 172253Z 24004KT 8SM CLR 27/04 A3003 RMK AO2 SLP170 T02670039
KSAC 172153Z VRB03KT 8SM CLR 27/03 A3004 RMK AO2 SLP171 T02720028
KSAC 172053Z 32004KT 8SM CLR 26/03 A3006 RMK AO2 SLP178 T02560033 58022
KSAC 171953Z 35004KT 7SM CLR 24/03 A3009 RMK AO2 SLP189 T02440033
KSAC 171853Z 30006KT 7SM CLR 21/04 A3011 RMK AO2 SLP196 T02060039
KSAC 171753Z 30004KT 7SM CLR 19/04 A3012 RMK AO2 SLP200 T01940044 10200 20083 51009
KSAC 171653Z 00000KT 6SM HZ CLR 18/05 A3012 RMK AO2 SLP197 T01830050
KSAC 171553Z 03004KT 6SM HZ CLR 14/06 A3011 RMK AO2 SLP196 T01390056
KSAC 171453Z 00000KT 6SM HZ CLR 11/06 A3010 RMK AO2 SLP191 T01060056 53012
KSAC 171353Z 32003KT 9SM CLR 09/05 A3008 RMK AO2 SLP185 T00890050
KSAC 171253Z AUTO 00000KT 8SM CLR 09/05 A3007 RMK AO2 SLP181 T00890050
KSAC 171153Z AUTO 00000KT 8SM CLR 09/06 A3006 RMK AO2 SLP179 T00940056 10139 20089 58004
KSAC 171053Z AUTO 00000KT 8SM CLR 09/05 A3006 RMK AO2 SLP180 T00940050
KSAC 170953Z AUTO 00000KT 9SM CLR 10/04 A3007 RMK AO2 SLP182 T01000044
KSAC 170853Z AUTO 00000KT 8SM CLR 11/05 A3007 RMK AO2 SLP183 T01060050 51002
KSAC 170753Z AUTO 00000KT 8SM CLR 12/04 A3007 RMK AO2 SLP182 T01220044 402890067
KSAC 170653Z AUTO 00000KT 8SM CLR 12/08 A3007 RMK AO2 SLP183 T01220078
KSAC 170553Z AUTO 00000KT 9SM CLR 12/07 A3007 RMK AO2 SLP181 T01220072 10283 20122 53009
KSAC 170453Z AUTO 00000KT 9SM CLR 13/07 A3005 RMK AO2 SLP177 T01330072
KSAC 170353Z 00000KT 9SM CLR 15/07 A3004 RMK AO2 SLP173 T01500067
KSAC 170253Z 10SM CLR 16/06 A3004 RMK AO2 SLP172 T01610061 55001
KSAC 170153Z 00000KT 10SM CLR 19/05 A3003 RMK AO2 SLP169 T01890050
KSAC 170053Z 00000KT 9SM CLR 23/07 A3003 RMK AO2 SLP170 T02280067
KSAC 162353Z 00000KT 9SM CLR 27/M01 A3005 RMK AO2 SLP174 T02721006 10289 20189 56017
KSAC 162253Z 32004KT 10SM CLR 28/M01 A3006 RMK AO2 SLP178 T02781006
KSAC 162153Z 32006KT 9SM CLR 28/01 A3007 RMK AO2 SLP182 T02830006
KSAC 162053Z 34007KT 10SM CLR 26/01 A3010 RMK AO2 SLP191 T02610011 58026
KSAC 161953Z 32005KT 10SM CLR 24/02 A3013 RMK AO2 SLP202 T02440022